Time,TemperatureF,DewpointF,PressureIn,WindDirection,WindDirectionDegrees,WindSpeedMPH,WindSpeedGustMPH,Humidity,HourlyPrecipIn,Conditions,Clouds,dailyrainin,SolarRadiationWatts/m^2,SoftwareType,DateUTC
2013-03-11 00:02:00,47.0,47.0,-100.00,North,5,1.0,3.0,97,-99.99,,,0.00,0.000000,,2013-03-11 07:02:00,
2013-03-11 00:12:00,47.0,47.0,-100.00,North,5,1.0,3.0,97,-99.99,,,0.00,0.000000,,2013-03-11 07:12:00,
2013-03-11 00:32:00,48.0,48.0,-100.00,NNE,18,2.0,4.0,97,-99.99,,,0.00,0.000000,,2013-03-11 07:32:00,
2013-03-11 00:42:00,48.0,48.0,-100.00,NNE,18,2.0,4.0,97,-99.99,,,0.00,0.000000,,2013-03-11 07:42:00,
2013-03-11 00:52:00,48.0,48.0,-100.00,NNE,18,2.0,4.0,97,-99.99,,,0.00,0.000000,,2013-03-11 07:52:00,
2013-03-11 01:02:00,48.0,48.0,-100.00,NNE,18,2.0,4.0,97,-99.99,,,0.00,0.000000,,2013-03-11 08:02:00,
2013-03-11 01:11:00,48.0,48.0,-100.00,NNE,18,2.0,4.0,97,-99.99,,,0.00,0.000000,,2013-03-11 08:11:00,
2013-03-11 01:42:00,48.0,48.0,-100.00,NE,47,2.0,3.0,98,-99.99,,,0.00,0.000000,,2013-03-11 08:42:00,
2013-03-11 01:52:00,48.0,48.0,-100.00,NE,47,2.0,3.0,98,-99.99,,,0.00,0.000000,,2013-03-11 08:52:00,
2013-03-11 02:02:00,48.0,48.0,-100.00,NE,47,2.0,3.0,98,-99.99,,,0.00,0.000000,,2013-03-11 09:02:00,
2013-03-11 02:12:00,48.0,48.0,-100.00,NE,47,2.0,3.0,98,-99.99,,,0.00,0.000000,,2013-03-11 09:12:00,
2013-03-11 02:42:00,48.0,48.0,-100.00,NNE,22,2.0,4.0,98,-99.99,,,0.00,0.000000,,2013-03-11 09:42:00,
2013-03-11 02:52:00,48.0,48.0,-100.00,NNE,22,2.0,4.0,98,-99.99,,,0.00,0.000000,,2013-03-11 09:52:00,
2013-03-11 03:02:00,48.0,48.0,-100.00,NNE,22,2.0,4.0,98,-99.99,,,0.00,0.000000,,2013-03-11 10:02:00,
2013-03-11 03:12:00,48.0,48.0,-100.00,NNE,22,2.0,4.0,98,-99.99,,,0.00,0.000000,,2013-03-11 10:12:00,
2013-03-11 03:42:00,48.0,47.0,-100.00,NE,47,2.0,5.0,99,-99.99,,,0.00,0.000000,,2013-03-11 10:42:00,
2013-03-11 03:52:00,48.0,47.0,-100.00,NE,47,2.0,5.0,99,-99.99,,,0.00,0.000000,,2013-03-11 10:52:00,
2013-03-11 04:02:00,48.0,47.0,-100.00,NE,47,2.0,5.0,99,-99.99,,,0.00,0.000000,,2013-03-11 11:02:00,
2013-03-11 04:11:00,48.0,47.0,-100.00,NE,47,2.0,5.0,99,-99.99,,,0.00,0.000000,,2013-03-11 11:11:00,
2013-03-11 04:32:00,47.0,47.0,-100.00,East,82,2.0,6.0,99,-99.99,,,0.00,0.000000,,2013-03-11 11:32:00,
2013-03-11 04:42:00,47.0,47.0,-100.00,East,82,2.0,6.0,99,-99.99,,,0.00,0.000000,,2013-03-11 11:42:00,
2013-03-11 04:53:00,47.0,47.0,-100.00,East,82,2.0,6.0,99,-99.99,,,0.00,0.000000,,2013-03-11 11:53:00,
2013-03-11 05:02:00,47.0,47.0,-100.00,East,82,2.0,6.0,99,-99.99,,,0.00,0.000000,,2013-03-11 12:02:00,
2013-03-11 05:11:00,47.0,47.0,-100.00,East,82,2.0,6.0,99,-99.99,,,0.00,0.000000,,2013-03-11 12:11:00,
2013-03-11 05:42:00,48.0,47.0,-100.00,East,83,3.0,7.0,99,-99.99,,,0.00,0.000000,,2013-03-11 12:42:00,
2013-03-11 05:53:00,48.0,47.0,-100.00,East,83,3.0,7.0,99,-99.99,,,0.00,0.000000,,2013-03-11 12:53:00,
2013-03-11 06:02:00,48.0,47.0,-100.00,East,83,3.0,7.0,99,-99.99,,,0.00,0.000000,,2013-03-11 13:02:00,
2013-03-11 06:12:00,48.0,47.0,-100.00,East,83,3.0,7.0,99,-99.99,,,0.00,0.000000,,2013-03-11 13:12:00,
2013-03-11 06:32:00,48.0,47.0,-100.00,NNE,25,1.0,3.0,99,-99.99,,,0.00,0.000000,,2013-03-11 13:32:00,
2013-03-11 06:42:00,48.0,47.0,-100.00,NNE,25,1.0,3.0,99,-99.99,,,0.00,0.000000,,2013-03-11 13:42:00,
2013-03-11 06:52:00,48.0,47.0,-100.00,NNE,25,1.0,3.0,99,-99.99,,,0.00,0.000000,,2013-03-11 13:52:00,
2013-03-11 07:02:00,48.0,47.0,-100.00,NNE,25,1.0,3.0,99,-99.99,,,0.00,0.000000,,2013-03-11 14:02:00,
2013-03-11 07:12:00,48.0,47.0,-100.00,NNE,25,1.0,3.0,99,-99.99,,,0.00,0.000000,,2013-03-11 14:12:00,
2013-03-11 07:42:00,48.0,47.0,-100.00,ENE,78,3.0,7.0,99,-99.99,,,0.00,0.000000,,2013-03-11 14:42:00,
2013-03-11 07:53:00,48.0,47.0,-100.00,ENE,78,3.0,7.0,99,-99.99,,,0.00,0.000000,,2013-03-11 14:53:00,
2013-03-11 08:02:00,48.0,47.0,-100.00,ENE,78,3.0,7.0,99,-99.99,,,0.00,0.000000,,2013-03-11 15:02:00,
2013-03-11 08:12:00,48.0,47.0,-100.00,ENE,78,3.0,7.0,99,-99.99,,,0.00,0.000000,,2013-03-11 15:12:00,
2013-03-11 08:42:00,47.0,47.0,-100.00,NE,48,3.0,6.0,99,-99.99,,,0.00,28.940001,,2013-03-11 15:42:00,
2013-03-11 08:53:00,47.0,47.0,-100.00,NE,48,3.0,6.0,99,-99.99,,,0.00,28.940001,,2013-03-11 15:53:00,
2013-03-11 09:02:00,47.0,47.0,-100.00,NE,48,3.0,6.0,99,-99.99,,,0.00,28.940001,,2013-03-11 16:02:00,
2013-03-11 09:12:00,47.0,47.0,-100.00,NE,48,3.0,6.0,99,-99.99,,,0.00,28.940001,,2013-03-11 16:12:00,
2013-03-11 09:42:00,48.0,47.0,-100.00,NE,40,3.0,6.0,98,-99.99,,,-99.99,130.860001,,2013-03-11 16:42:00,
2013-03-11 09:52:00,48.0,47.0,-100.00,NE,40,3.0,6.0,98,-99.99,,,-99.99,130.860001,,2013-03-11 16:52:00,
2013-03-11 10:02:00,48.0,47.0,-100.00,NE,40,3.0,6.0,98,-99.99,,,-99.99,130.860001,,2013-03-11 17:02:00,
2013-03-11 10:13:00,48.0,47.0,-100.00,NE,40,3.0,6.0,98,-99.99,,,-99.99,130.860001,,2013-03-11 17:13:00,
2013-03-11 10:42:00,48.0,47.0,-100.00,NNE,22,4.0,9.0,94,-99.99,,,0.00,215.240005,,2013-03-11 17:42:00,
2013-03-11 10:53:00,48.0,47.0,-100.00,NNE,22,4.0,9.0,94,-99.99,,,0.00,215.240005,,2013-03-11 17:53:00,
2013-03-11 11:02:00,48.0,47.0,-100.00,NNE,22,4.0,9.0,94,-99.99,,,0.00,215.240005,,2013-03-11 18:02:00,
2013-03-11 11:11:00,48.0,47.0,-100.00,NNE,22,4.0,9.0,94,-99.99,,,0.00,215.240005,,2013-03-11 18:11:00,
2013-03-11 11:42:00,50.0,48.0,-100.00,NNE,24,4.0,7.0,93,-99.99,,,0.00,276.839996,,2013-03-11 18:42:00,
2013-03-11 11:53:00,50.0,48.0,-100.00,NNE,24,4.0,7.0,93,-99.99,,,0.00,276.839996,,2013-03-11 18:53:00,
2013-03-11 12:02:00,50.0,48.0,-100.00,NNE,24,4.0,7.0,93,-99.99,,,0.00,276.839996,,2013-03-11 19:02:00,
2013-03-11 12:12:00,50.0,48.0,-100.00,NNE,24,4.0,7.0,93,-99.99,,,0.00,276.839996,,2013-03-11 19:12:00,
2013-03-11 12:42:00,52.0,49.0,-100.00,NNE,28,4.0,7.0,87,-99.99,,,0.00,599.809998,,2013-03-11 19:42:00,
2013-03-11 12:52:00,52.0,49.0,-100.00,NNE,28,4.0,7.0,87,-99.99,,,0.00,599.809998,,2013-03-11 19:52:00,
2013-03-11 13:02:00,52.0,49.0,-100.00,NNE,28,4.0,7.0,87,-99.99,,,0.00,599.809998,,2013-03-11 20:02:00,
2013-03-11 13:11:00,52.0,49.0,-100.00,NNE,28,4.0,7.0,87,-99.99,,,0.00,599.809998,,2013-03-11 20:11:00,
2013-03-11 13:43:00,53.0,49.0,-100.00,NNW,337,7.0,11.0,86,-99.99,,,0.00,709.169983,,2013-03-11 20:43:00,
2013-03-11 13:53:00,53.0,49.0,-100.00,NNW,337,7.0,11.0,86,-99.99,,,0.00,709.169983,,2013-03-11 20:53:00,
2013-03-11 14:02:00,53.0,49.0,-100.00,NNW,337,7.0,11.0,86,-99.99,,,0.00,709.169983,,2013-03-11 21:02:00,
2013-03-11 14:12:00,53.0,49.0,-100.00,NNW,337,7.0,11.0,86,-99.99,,,0.00,709.169983,,2013-03-11 21:12:00,
2013-03-11 14:43:00,53.0,49.0,-100.00,NNW,339,7.0,11.0,86,-99.99,,,0.00,493.010010,,2013-03-11 21:43:00,
2013-03-11 14:53:00,53.0,49.0,-100.00,NNW,339,7.0,11.0,86,-99.99,,,0.00,493.010010,,2013-03-11 21:53:00,
2013-03-11 15:02:00,53.0,49.0,-100.00,NNW,339,7.0,11.0,86,-99.99,,,0.00,493.010010,,2013-03-11 22:02:00,
2013-03-11 15:12:00,53.0,49.0,-100.00,NNW,339,7.0,11.0,86,-99.99,,,0.00,493.010010,,2013-03-11 22:12:00,
2013-03-11 15:32:00,51.0,48.0,-100.00,NNW,348,8.0,13.0,89,-99.99,,,0.00,630.960022,,2013-03-11 22:32:00,
2013-03-11 15:43:00,51.0,48.0,-100.00,NNW,348,8.0,13.0,89,-99.99,,,0.00,630.960022,,2013-03-11 22:43:00,
2013-03-11 15:53:00,51.0,48.0,-100.00,NNW,348,8.0,13.0,89,-99.99,,,0.00,630.960022,,2013-03-11 22:53:00,
2013-03-11 16:02:00,51.0,48.0,-100.00,NNW,348,8.0,13.0,89,-99.99,,,0.00,630.960022,,2013-03-11 23:02:00,
2013-03-11 16:12:00,51.0,48.0,-100.00,NNW,348,8.0,13.0,89,-99.99,,,0.00,630.960022,,2013-03-11 23:12:00,
2013-03-11 16:43:00,51.0,48.0,-100.00,North,357,8.0,15.0,90,-99.99,,,0.00,534.500000,,2013-03-11 23:43:00,
2013-03-11 16:53:00,51.0,48.0,-100.00,North,357,8.0,15.0,90,-99.99,,,0.00,534.500000,,2013-03-11 23:53:00,
2013-03-11 17:02:00,51.0,48.0,-100.00,North,357,8.0,15.0,90,-99.99,,,0.00,534.500000,,2013-03-12 00:02:00,
2013-03-11 17:12:00,51.0,48.0,-100.00,North,357,8.0,15.0,90,-99.99,,,0.00,534.500000,,2013-03-12 00:12:00,
2013-03-11 17:42:00,52.0,48.0,-100.00,North,353,6.0,12.0,89,-99.99,,,0.00,295.429993,,2013-03-12 00:42:00,
2013-03-11 17:53:00,52.0,48.0,-100.00,North,353,6.0,12.0,89,-99.99,,,0.00,295.429993,,2013-03-12 00:53:00,
2013-03-11 18:02:00,52.0,48.0,-100.00,North,353,6.0,12.0,89,-99.99,,,0.00,295.429993,,2013-03-12 01:02:00,
2013-03-11 18:11:00,52.0,48.0,-100.00,North,353,6.0,12.0,89,-99.99,,,0.00,295.429993,,2013-03-12 01:11:00,
2013-03-11 18:42:00,52.0,48.0,-100.00,NNW,344,4.0,9.0,86,-99.99,,,0.00,128.419998,,2013-03-12 01:42:00,
2013-03-11 18:52:00,52.0,48.0,-100.00,NNW,344,4.0,9.0,86,-99.99,,,0.00,128.419998,,2013-03-12 01:52:00,
2013-03-11 19:02:00,52.0,48.0,-100.00,NNW,344,4.0,9.0,86,-99.99,,,0.00,128.419998,,2013-03-12 02:02:00,
2013-03-11 19:12:00,52.0,48.0,-100.00,NNW,344,4.0,9.0,86,-99.99,,,0.00,128.419998,,2013-03-12 02:12:00,
2013-03-11 19:42:00,49.0,47.0,-100.00,North,356,4.0,9.0,92,-99.99,,,0.00,11.390000,,2013-03-12 02:42:00,
2013-03-11 19:52:00,49.0,47.0,-100.00,North,356,4.0,9.0,92,-99.99,,,0.00,11.390000,,2013-03-12 02:52:00,
2013-03-11 20:02:00,49.0,47.0,-100.00,North,356,4.0,9.0,92,-99.99,,,0.00,11.390000,,2013-03-12 03:02:00,
2013-03-11 20:12:00,49.0,47.0,-100.00,North,356,4.0,9.0,92,-99.99,,,0.00,11.390000,,2013-03-12 03:12:00,
2013-03-11 20:42:00,48.0,47.0,-100.00,NNW,343,2.0,4.0,95,-99.99,,,0.00,0.000000,,2013-03-12 03:42:00,
2013-03-11 20:52:00,48.0,47.0,-100.00,NNW,343,2.0,4.0,95,-99.99,,,0.00,0.000000,,2013-03-12 03:52:00,
2013-03-11 21:02:00,48.0,47.0,-100.00,NNW,343,2.0,4.0,95,-99.99,,,0.00,0.000000,,2013-03-12 04:02:00,
2013-03-11 21:12:00,48.0,47.0,-100.00,NNW,343,2.0,4.0,95,-99.99,,,0.00,0.000000,,2013-03-12 04:12:00,
2013-03-11 21:42:00,48.0,47.0,-100.00,South,169,0.0,1.0,96,-99.99,,,0.00,0.000000,,2013-03-12 04:42:00,
2013-03-11 21:52:00,48.0,47.0,-100.00,South,169,0.0,1.0,96,-99.99,,,0.00,0.000000,,2013-03-12 04:52:00,
2013-03-11 22:02:00,48.0,47.0,-100.00,South,169,0.0,1.0,96,-99.99,,,0.00,0.000000,,2013-03-12 05:02:00,
2013-03-11 22:12:00,48.0,47.0,-100.00,South,169,0.0,1.0,96,-99.99,,,0.00,0.000000,,2013-03-12 05:12:00,
2013-03-11 22:32:00,47.0,46.0,-100.00,ESE,122,0.0,2.0,96,-99.99,,,0.00,0.000000,,2013-03-12 05:32:00,
2013-03-11 22:42:00,47.0,46.0,-100.00,ESE,122,0.0,2.0,96,-99.99,,,0.00,0.000000,,2013-03-12 05:42:00,
2013-03-11 22:52:00,47.0,46.0,-100.00,ESE,122,0.0,2.0,96,-99.99,,,0.00,0.000000,,2013-03-12 05:52:00,
2013-03-11 23:02:00,47.0,46.0,-100.00,ESE,122,0.0,2.0,96,-99.99,,,0.00,0.000000,,2013-03-12 06:02:00,
2013-03-11 23:11:00,47.0,46.0,-100.00,ESE,122,0.0,2.0,96,-99.99,,,0.00,0.000000,,2013-03-12 06:11:00,
2013-03-11 23:32:00,46.0,45.0,-100.00,North,349,1.0,3.0,97,-99.99,,,0.00,0.000000,,2013-03-12 06:32:00,
2013-03-11 23:42:00,46.0,45.0,-100.00,North,349,1.0,3.0,97,-99.99,,,0.00,0.000000,,2013-03-12 06:42:00,
2013-03-11 23:52:00,46.0,45.0,-100.00,North,349,1.0,3.0,97,-99.99,,,0.00,0.000000,,2013-03-12 06:52:00,